WetterOnline ( https://www.wetteronline.at )

Wetter aktuell Oldsum

Aktuelles Wetter: List/Sylt (29m)

6-stündlich | Neueste Meldungen
Ortszeit Temperatur Wetter
Sa, 24.02. 7:00 4.9° C bedeckt
Sa, 24.02. 1:00 5.6° C wolkig
Fr, 23.02. 19:00 5.6° C leichter Regen
Fr, 23.02. 13:00 6.3° C wolkig
Fr, 23.02. 7:00 5.1° C bewölkt
Fr, 23.02. 1:00 8.5° C bedeckt
Do, 22.02. 19:00 8.0° C bedeckt
Do, 22.02. 13:00 7.0° C Nebel
Ortszeit Temperatur Wetter
Sa, 24.02. 11:30 6.3° C bedeckt
Sa, 24.02. 11:10 6.0° C bedeckt
Sa, 24.02. 11:00 5.8° C bedeckt
Sa, 24.02. 10:50 5.8° C bedeckt
Sa, 24.02. 10:40 5.6° C bedeckt
Sa, 24.02. 10:30 5.6° C bedeckt
Sa, 24.02. 10:00 5.2° C bedeckt
Sa, 24.02. 9:30 5.0° C bedeckt
Sa, 24.02. 9:00 5.1° C bedeckt
Sa, 24.02. 8:30 5.0° C bedeckt
Ortszeit Relative Feuchte Sichtweite
Sa, 24.02. 7:00 83% 45 km
Sa, 24.02. 1:00 89% 30 km
Fr, 23.02. 19:00 87% 13 km
Fr, 23.02. 13:00 79% 29 km
Fr, 23.02. 7:00 82% 20 km
Fr, 23.02. 1:00 80% 26 km
Do, 22.02. 19:00 92% 21 km
Do, 22.02. 13:00 98% 100 m
Ortszeit Relative Feuchte Sichtweite
Sa, 24.02. 11:30 85% 27 km
Sa, 24.02. 11:10 86% -
Sa, 24.02. 11:00 88% 29 km
Sa, 24.02. 10:50 88% -
Sa, 24.02. 10:40 89% -
Sa, 24.02. 10:30 88% 35 km
Sa, 24.02. 10:00 88% 35 km
Sa, 24.02. 9:30 86% 35 km
Sa, 24.02. 9:00 86% 40 km
Sa, 24.02. 8:30 86% 35 km
Ortszeit Niederschlagsmenge Niederschlagsart
Sa, 24.02. 7:00 0.1 l/m2 in 12 Std. -
Sa, 24.02. 1:00 0.1 l/m2 in 6 Std. Regen
Fr, 23.02. 19:00 1 l/m2 in 12 Std. Regen
Fr, 23.02. 13:00 0.1 l/m2 in 6 Std. Regen
Fr, 23.02. 7:00 2 l/m2 in 12 Std. Regen
Fr, 23.02. 1:00 2 l/m2 in 6 Std. Regen
Do, 22.02. 19:00 0.1 l/m2 in 12 Std. Sprühregen
Do, 22.02. 13:00 0.1 l/m2 in 6 Std. -
Ortszeit Niederschlagsmenge Niederschlagsart
Sa, 24.02. 11:30 0.0 l/m2 in 30 Min -
Sa, 24.02. 11:10 keine Meldung -
Sa, 24.02. 11:00 0.0 l/m2 in 1 Std. -
Sa, 24.02. 10:50 keine Meldung -
Sa, 24.02. 10:40 keine Meldung -
Sa, 24.02. 10:30 0.0 l/m2 in 30 Min -
Sa, 24.02. 10:00 0.0 l/m2 in 1 Std. -
Sa, 24.02. 9:30 0.0 l/m2 in 30 Min -
Sa, 24.02. 9:00 0.0 l/m2 in 1 Std. -
Sa, 24.02. 8:30 0.0 l/m2 in 30 Min -
Ortszeit Stärke Spitze Richtung
km/h Bft. km/h Grad Sektor
Sa, 24.02. 7:00 28 4 35 140° SO
Sa, 24.02. 1:00 20 4 50 160° S
Fr, 23.02. 19:00 40 6 76 220° SW
Fr, 23.02. 13:00 47 6 90 210° SW
Fr, 23.02. 7:00 47 6 119 250° W
Fr, 23.02. 1:00 72 8 94 190° S
Do, 22.02. 19:00 31 5 41 120° SO
Do, 22.02. 13:00 18 3 36 180° S
Ortszeit Stärke Spitze Richtung
km/h Bft. km/h Grad Sektor
Sa, 24.02. 11:30 28 4 33 190° S
Sa, 24.02. 11:10 26 4 - 190° S
Sa, 24.02. 11:00 25 4 40 180° S
Sa, 24.02. 10:50 25 4 - 180° S
Sa, 24.02. 10:40 22 4 - 180° S
Sa, 24.02. 10:30 26 4 35 170° S
Sa, 24.02. 10:00 29 5 40 160° S
Sa, 24.02. 9:30 30 5 37 160° S
Sa, 24.02. 9:00 29 5 40 160° S
Sa, 24.02. 8:30 30 5 39 160° S
Ortszeit Untergrenze Bedeckung Gattung
total tief tief mittel hoch
Sa, 24.02. 7:00 1800 m 8/8 8/8 - - -
Sa, 24.02. 1:00 810 m 7/8 4/8 - - -
Fr, 23.02. 19:00 510 m 7/8 7/8 - - -
Fr, 23.02. 13:00 510 m 7/8 2/8 - - -
Fr, 23.02. 7:00 630 m 8/8 7/8 - - -
Fr, 23.02. 1:00 960 m 8/8 8/8 - - -
Do, 22.02. 19:00 780 m 8/8 8/8 - - -
Do, 22.02. 13:00 <30 m 8/8 0/8 - - -
Ortszeit Bedeckungsgrad in Achtel und Wolkenuntergrenze
Sa, 24.02. 11:30 6(330m) 6(1440m) 8(1800m)
Sa, 24.02. 11:10 8
Sa, 24.02. 11:00 7(360m) 8(1800m)
Sa, 24.02. 10:50 7(360m) 8(1800m)
Sa, 24.02. 10:40 8
Sa, 24.02. 10:30 4(360m) 8(1800m)
Sa, 24.02. 10:00 8(1500m)
Sa, 24.02. 9:30 8(1500m)
Sa, 24.02. 9:00 8(1800m)
Sa, 24.02. 8:30 8(1800m)
Ortszeit Luftdruck NN (hPa) Tendenz (hPa in 3 Std.)
Sa, 24.02. 7:00 996 + 0,8
Sa, 24.02. 1:00 994 + 1,1
Fr, 23.02. 19:00 990 + 2,7
Fr, 23.02. 13:00 987 + 3,0
Fr, 23.02. 7:00 980 + 6,2
Fr, 23.02. 1:00 968 - 3,7
Do, 22.02. 19:00 978 - 4,8
Do, 22.02. 13:00 987 - 2,7
Ortszeit Luftdruck NN (hPa) Tendenz (hPa in 3 Std.)
Sa, 24.02. 11:30 997 + 1,5
Sa, 24.02. 11:10 997 keine Meldung
Sa, 24.02. 11:00 997 + 1,4
Sa, 24.02. 10:50 997 keine Meldung
Sa, 24.02. 10:40 997 keine Meldung
Sa, 24.02. 10:30 997 + 1,4
Sa, 24.02. 10:00 997 + 1,1
Sa, 24.02. 9:30 996 + 1,0
Sa, 24.02. 9:00 996 + 1,1
Sa, 24.02. 8:30 996 + 0,9
Ortszeit Schneehöhe (cm)
Sa, 24.02. 7:00 0
Sa, 24.02. 1:00 0
Fr, 23.02. 19:00 0
Fr, 23.02. 13:00 0
Fr, 23.02. 7:00 0
Fr, 23.02. 1:00 0
Do, 22.02. 19:00 0
Do, 22.02. 13:00 0
Ortszeit Schneehöhe (cm)
Sa, 24.02. 11:30 0
Sa, 24.02. 11:10 -
Sa, 24.02. 11:00 0
Sa, 24.02. 10:50 0
Sa, 24.02. 10:40 -
Sa, 24.02. 10:30 0
Sa, 24.02. 10:00 0
Sa, 24.02. 9:30 0
Sa, 24.02. 9:00 0
Sa, 24.02. 8:30 0
Link zu dieser Seite / Seite empfehlen

Das Wetter in ...